Time;durP1;ratioP1;P1;durP2;ratioP2;P2;SDS_P1;SDS_P2;PMS_P1;PMS_P2;Temp;Humidity;BMP_temperature;BMP_pressure;BME280_temperature;BME280_humidity;BME280_pressure;Samples;Min_cycle;Max_cycle;Signal;HPM_P1;HPM_P2
2022/03/27 00:00:07;;;;;;;37.72;25.23;;;;;;;6.63;100.00;101029.66;4937307;29;20087;-75
2022/03/27 00:02:33;;;;;;;37.03;29.67;;;;;;;6.61;100.00;101033.97;4936940;29;20082;-76
2022/03/27 00:04:58;;;;;;;23.80;16.58;;;;;;;6.50;100.00;101017.69;4937195;29;20024;-75
2022/03/27 00:07:23;;;;;;;29.23;19.75;;;;;;;6.65;100.00;101042.59;4937393;29;20708;-75
2022/03/27 00:09:49;;;;;;;32.88;22.77;;;;;;;6.62;100.00;101042.63;4967909;28;20030;-75
2022/03/27 00:12:14;;;;;;;27.65;20.67;;;;;;;6.45;100.00;101017.75;4937222;29;20103;-75
2022/03/27 00:14:39;;;;;;;26.85;19.38;;;;;;;6.52;100.00;101031.47;4936716;29;20051;-75
2022/03/27 00:17:05;;;;;;;28.90;19.63;;;;;;;6.59;100.00;101050.41;4937649;29;20034;-75
2022/03/27 00:19:30;;;;;;;28.60;18.95;;;;;;;6.46;100.00;101040.16;4937217;29;20039;-75
2022/03/27 00:21:56;;;;;;;30.40;19.80;;;;;;;6.40;100.00;101047.94;4936950;29;20050;-76
2022/03/27 00:24:21;;;;;;;25.98;16.95;;;;;;;6.30;100.00;101041.13;4937407;29;20032;-75
2022/03/27 00:26:47;;;;;;;25.10;14.27;;;;;;;6.32;97.82;101054.03;4936628;29;20024;-75
2022/03/27 00:29:15;;;;;;;20.42;11.85;;;;;;;6.32;90.52;101075.63;4936900;29;20436;-75
2022/03/27 00:31:40;;;;;;;18.33;10.45;;;;;;;6.14;83.61;101063.63;4936694;29;20468;-75
2022/03/27 00:34:06;;;;;;;13.35;8.50;;;;;;;6.16;77.37;101077.44;4936864;29;20028;-75
2022/03/27 00:36:31;;;;;;;14.15;8.07;;;;;;;6.08;72.96;101074.03;4936913;29;20110;-75
2022/03/27 00:38:57;;;;;;;13.73;6.30;;;;;;;5.98;67.63;101081.00;4936614;29;20067;-75
2022/03/27 00:41:24;;;;;;;8.50;4.40;;;;;;;5.89;61.84;101077.53;4936700;29;20028;-74
2022/03/27 00:43:50;;;;;;;8.85;5.20;;;;;;;5.87;61.55;101093.06;4936423;29;20059;-74
2022/03/27 00:46:15;;;;;;;9.38;5.10;;;;;;;5.82;58.10;101097.41;4936720;29;20024;-75
2022/03/27 00:48:41;;;;;;;8.30;5.03;;;;;;;5.72;57.21;101098.28;4936513;29;20032;-75
2022/03/27 00:51:07;;;;;;;9.65;5.32;;;;;;;5.62;57.05;101097.47;4936657;29;20090;-75
2022/03/27 00:53:32;;;;;;;7.25;4.10;;;;;;;5.53;55.36;101100.09;4936524;29;20035;-75
2022/03/27 00:55:58;;;;;;;9.63;4.40;;;;;;;5.36;55.51;101073.44;4936201;29;20023;-74
2022/03/27 00:58:23;;;;;;;10.15;4.18;;;;;;;5.30;54.95;101076.88;4936461;29;20067;-75
2022/03/27 01:01:14;;;;;;;5.43;3.25;;;;;;;5.34;55.41;101085.47;4936298;29;20023;-75
2022/03/27 01:03:40;;;;;;;;;;;;;;;5.28;55.38;101090.66;4936930;29;20030;-75
2022/03/27 01:06:17;;;;;;;7.47;4.32;;;;;;;5.15;55.46;101082.09;4936357;29;19915;-75
2022/03/27 01:11:26;;;;;;;7.20;4.22;;;;;;;5.04;56.17;101083.81;4936185;29;20142;-74
2022/03/27 01:13:56;;;;;;;10.18;5.43;;;;;;;4.97;56.17;101089.00;4934995;29;20115;-75
2022/03/27 01:16:37;;;;;;;10.90;5.60;;;;;;;4.94;57.01;101096.72;4936164;29;20057;-74
2022/03/27 01:19:04;;;;;;;8.27;4.80;;;;;;;4.79;56.05;101078.66;4935723;29;20480;-74
2022/03/27 01:21:30;;;;;;;8.98;4.53;;;;;;;4.83;55.94;101095.88;4936187;29;20036;-75
2022/03/27 01:23:56;;;;;;;6.85;4.45;;;;;;;4.77;55.83;101084.69;4935898;29;20035;-74
2022/03/27 01:26:23;;;;;;;9.77;5.97;;;;;;;4.64;55.61;101086.41;4935935;29;20031;-75
2022/03/27 01:28:49;;;;;;;9.73;5.95;;;;;;;4.64;55.65;101078.66;4935638;29;20086;-75
2022/03/27 01:31:14;;;;;;;9.88;5.55;;;;;;;4.59;55.21;101086.38;4935815;29;20447;-75
2022/03/27 01:33:39;;;;;;;9.05;4.72;;;;;;;4.62;55.20;101090.69;4935702;29;20322;-74
2022/03/27 01:36:05;;;;;;;9.27;4.90;;;;;;;4.55;54.99;101086.38;4935957;29;20036;-74
2022/03/27 01:38:30;;;;;;;9.43;4.55;;;;;;;4.54;54.91;101082.94;4935663;29;20027;-75
2022/03/27 01:40:56;;;;;;;5.18;3.78;;;;;;;4.50;54.03;101088.94;4935517;29;20036;-75
2022/03/27 01:43:22;;;;;;;8.55;4.28;;;;;;;4.42;54.10;101075.19;4935637;29;20036;-75
2022/03/27 01:45:48;;;;;;;7.68;3.75;;;;;;;4.45;53.82;101083.78;4935268;29;20063;-75
2022/03/27 01:48:13;;;;;;;8.43;4.40;;;;;;;4.43;53.69;101087.25;4935395;29;20123;-75
2022/03/27 01:50:39;;;;;;;7.93;3.88;;;;;;;4.41;53.71;101083.78;4935927;29;20678;-75
2022/03/27 01:53:04;;;;;;;7.65;4.05;;;;;;;4.39;53.05;101083.78;4935188;29;20043;-74
2022/03/27 01:55:30;;;;;;;7.18;3.17;;;;;;;4.36;53.28;101083.78;4934215;29;20020;-74
2022/03/27 01:57:55;;;;;;;9.20;4.32;;;;;;;4.34;53.14;101087.19;4935214;29;20384;-75
2022/03/27 02:00:20;;;;;;;7.72;3.78;;;;;;;4.21;53.28;101070.84;4935202;29;20034;-74
2022/03/27 02:02:46;;;;;;;11.43;5.50;;;;;;;4.26;53.18;101089.78;4934952;29;20464;-75
2022/03/27 02:05:11;;;;;;;8.50;3.85;;;;;;;4.09;52.88;101070.81;4935191;29;20028;-75
2022/03/27 02:07:38;;;;;;;6.57;4.40;;;;;;;4.10;52.91;101081.16;4935130;29;20119;-75
2022/03/27 02:10:05;;;;;;;9.43;5.25;;;;;;;3.99;52.94;101062.19;4934983;29;20031;-75
2022/03/27 02:12:34;;;;;;;10.98;4.80;;;;;;;4.14;52.91;101095.78;4935138;29;20039;-75
2022/03/27 02:15:00;;;;;;;7.93;4.20;;;;;;;4.12;52.77;101102.63;4934713;29;20102;-75
2022/03/27 02:17:25;;;;;;;8.40;4.45;;;;;;;4.11;52.86;101095.75;4935107;29;20055;-74
2022/03/27 02:19:51;;;;;;;13.80;5.95;;;;;;;4.14;52.72;101103.50;4935163;29;20030;-75
2022/03/27 02:22:16;;;;;;;50.28;20.95;;;;;;;4.06;53.21;101083.72;4935230;29;20086;-74
2022/03/27 02:24:41;;;;;;;23.67;9.88;;;;;;;4.11;53.45;101097.47;4934984;29;20130;-74
2022/03/27 02:27:07;;;;;;;22.65;7.82;;;;;;;4.10;53.64;101096.63;4934488;29;20030;-74
2022/03/27 02:29:32;;;;;;;20.52;9.27;;;;;;;4.08;53.94;101098.31;4934914;29;20028;-74
2022/03/27 02:31:57;;;;;;;18.63;8.55;;;;;;;4.06;54.13;101096.63;4934580;29;20026;-75
2022/03/27 02:34:23;;;;;;;24.42;9.27;;;;;;;4.03;54.15;101097.44;4935086;29;20114;-74
2022/03/27 02:36:48;;;;;;;16.50;7.97;;;;;;;3.97;54.20;101098.31;4934996;29;20047;-75
2022/03/27 02:39:15;;;;;;;21.50;7.65;;;;;;;3.82;54.89;101071.59;4934830;29;20123;-75
2022/03/27 02:41:40;;;;;;;23.38;9.13;;;;;;;3.90;55.32;101091.38;4934704;29;20486;-75
2022/03/27 02:44:07;;;;;;;16.20;6.90;;;;;;;3.87;55.38;101087.94;4934506;29;20039;-74
2022/03/27 02:46:33;;;;;;;14.43;5.40;;;;;;;3.80;55.54;101084.50;4934596;29;20028;-75
2022/03/27 02:48:58;;;;;;;11.40;4.45;;;;;;;3.87;56.07;101112.00;4934651;29;20039;-74
2022/03/27 02:51:24;;;;;;;7.47;4.50;;;;;;;3.75;55.68;101099.94;4934829;29;20476;-75
2022/03/27 02:53:49;;;;;;;10.15;5.38;;;;;;;3.73;55.89;101100.78;4934511;29;20028;-75
2022/03/27 02:56:15;;;;;;;9.60;3.85;;;;;;;3.72;55.93;101101.63;4934674;29;20031;-74
2022/03/27 02:58:41;;;;;;;6.82;4.00;;;;;;;3.77;55.62;101114.53;4934613;29;20090;-75
2022/03/27 03:01:07;;;;;;;10.30;4.25;;;;;;;3.74;55.59;101116.22;4934219;29;20031;-75
2022/03/27 03:03:32;;;;;;;9.32;4.15;;;;;;;3.63;55.58;101106.75;4934731;29;20028;-74
2022/03/27 03:05:59;;;;;;;10.75;5.72;;;;;;;3.67;55.36;101121.38;4934390;29;20480;-75
2022/03/27 03:08:26;;;;;;;18.35;7.57;;;;;;;3.62;55.71;101120.47;4934589;29;20092;-75
2022/03/27 03:10:52;;;;;;;23.83;8.75;;;;;;;3.54;56.21;101112.72;4934371;29;20038;-75
2022/03/27 03:13:17;;;;;;;13.13;5.25;;;;;;;3.62;55.71;101126.47;4934536;29;20035;-74
2022/03/27 03:15:43;;;;;;;21.77;7.80;;;;;;;3.60;55.63;101124.75;4934632;29;20048;-75
2022/03/27 03:18:10;;;;;;;8.55;4.35;;;;;;;3.50;55.50;101114.41;4934401;29;20031;-75
2022/03/27 03:20:36;;;;;;;11.05;4.13;;;;;;;3.46;55.04;101104.09;4934546;29;20038;-74
2022/03/27 03:23:02;;;;;;;8.93;4.40;;;;;;;3.44;55.13;101118.66;4934218;29;20047;-75
2022/03/27 03:25:29;;;;;;;7.88;3.72;;;;;;;3.41;55.37;101116.94;4934453;29;20110;-75
2022/03/27 03:27:54;;;;;;;12.30;3.92;;;;;;;3.44;54.88;101121.22;4964898;28;20036;-74
2022/03/27 03:30:20;;;;;;;7.55;4.43;;;;;;;3.43;54.76;101117.78;4934371;29;20054;-75
2022/03/27 03:32:46;;;;;;;8.52;3.60;;;;;;;3.44;54.35;101114.34;4933340;29;20031;-75
2022/03/27 03:35:11;;;;;;;8.52;4.05;;;;;;;3.43;53.88;101117.78;4934323;29;20032;-74
2022/03/27 03:37:37;;;;;;;9.98;4.55;;;;;;;3.42;54.04;101122.94;4935513;29;20032;-74
2022/03/27 03:40:07;;;;;;;13.77;4.20;;;;;;;3.40;54.02;101115.19;4937693;29;20032;-74
2022/03/27 03:42:34;;;;;;;11.88;3.42;;;;;;;3.34;53.92;101111.72;4937808;29;20030;-74
2022/03/27 03:44:59;;;;;;;6.63;3.08;;;;;;;3.31;53.68;101106.56;4937437;29;20039;-74
2022/03/27 03:47:24;;;;;;;5.32;2.95;;;;;;;3.34;53.69;101110.00;4937765;29;20027;-75
2022/03/27 03:49:50;;;;;;;10.55;4.35;;;;;;;3.40;53.88;101122.06;4937576;29;20038;-74
2022/03/27 03:52:15;;;;;;;11.52;6.40;;;;;;;3.38;53.79;101119.47;4937718;29;20024;-74
2022/03/27 03:54:41;;;;;;;16.65;9.88;;;;;;;3.31;53.97;101112.56;4937651;29;20036;-74
2022/03/27 03:57:06;;;;;;;12.55;5.72;;;;;;;3.32;53.83;101118.56;4937364;29;20448;-75
2022/03/27 03:59:36;;;;;;;12.00;5.20;;;;;;;3.31;54.00;101114.28;4937422;29;20059;-74
2022/03/27 04:02:05;;;;;;;11.07;4.68;;;;;;;3.37;54.31;101127.19;4937519;29;20027;-74
2022/03/27 04:04:32;;;;;;;13.45;4.07;;;;;;;3.35;53.92;101132.34;4937528;29;20063;-74
2022/03/27 04:06:58;;;;;;;12.38;4.93;;;;;;;3.27;54.03;101122.84;4937159;29;20030;-74
2022/03/27 04:09:23;;;;;;;10.02;4.75;;;;;;;3.34;54.10;101134.91;4937465;29;20036;-74
2022/03/27 04:11:49;;;;;;;16.35;5.95;;;;;;;3.32;54.50;101142.59;4937058;29;20606;-74
2022/03/27 04:14:14;;;;;;;11.70;4.30;;;;;;;3.21;54.47;101123.66;4937240;29;20055;-75
2022/03/27 04:16:40;;;;;;;6.05;3.47;;;;;;;3.18;54.86;101134.78;4937221;29;20036;-75
2022/03/27 04:19:05;;;;;;;5.97;3.08;;;;;;;3.15;54.98;101136.47;4936958;29;20028;-74
2022/03/27 04:21:31;;;;;;;5.68;3.47;;;;;;;3.05;55.32;101132.97;4937472;29;20030;-74
2022/03/27 04:23:56;;;;;;;9.00;3.45;;;;;;;2.99;56.01;101138.06;4936871;29;20035;-74
2022/03/27 04:26:22;;;;;;;7.07;3.22;;;;;;;3.03;56.00;101152.69;4936917;29;20030;-74
2022/03/27 04:28:47;;;;;;;6.90;3.35;;;;;;;2.93;56.00;101151.75;4937164;29;20472;-74
2022/03/27 04:31:13;;;;;;;5.72;3.28;;;;;;;2.97;56.37;101148.34;4935407;29;20031;-75
2022/03/27 04:33:38;;;;;;;7.30;3.30;;;;;;;2.95;56.50;101156.91;4937049;29;20032;-74
2022/03/27 04:36:05;;;;;;;6.82;3.90;;;;;;;2.93;57.12;101167.19;4936735;29;20038;-74
2022/03/27 04:38:31;;;;;;;6.38;2.72;;;;;;;2.84;57.21;101156.81;4936864;29;20032;-75
2022/03/27 04:40:56;;;;;;;7.00;3.10;;;;;;;2.84;57.36;101159.38;4936501;29;20027;-75
2022/03/27 04:43:25;;;;;;;5.15;3.03;;;;;;;2.89;57.78;101172.28;4936728;29;20032;-74
2022/03/27 04:45:51;;;;;;;6.25;3.67;;;;;;;2.84;57.21;101163.69;4936660;29;20536;-75
2022/03/27 04:48:17;;;;;;;34.58;11.40;;;;;;;2.88;57.37;101168.88;4936869;29;20035;-75
2022/03/27 04:50:42;;;;;;;111.40;31.98;;;;;;;2.81;57.75;101161.06;4936784;29;20056;-75
2022/03/27 04:53:07;;;;;;;88.20;26.80;;;;;;;2.79;58.33;101145.63;4936363;29;20028;-74
2022/03/27 04:55:33;;;;;;;86.45;25.02;;;;;;;2.85;58.15;101166.25;4936504;29;20173;-75
2022/03/27 04:57:59;;;;;;;47.03;13.38;;;;;;;2.81;58.14;101158.50;4936457;29;20036;-74
2022/03/27 05:00:25;;;;;;;18.48;6.60;;;;;;;2.86;58.16;101169.69;4936540;29;20085;-74
2022/03/27 05:02:50;;;;;;;14.55;5.38;;;;;;;2.94;58.26;101181.78;4936261;29;20489;-75
2022/03/27 05:05:17;;;;;;;27.40;7.97;;;;;;;2.92;58.18;101183.50;4936453;29;20468;-75
2022/03/27 05:07:43;;;;;;;39.22;10.18;;;;;;;2.92;57.89;101177.47;4936231;29;20035;-74
2022/03/27 05:10:10;;;;;;;63.80;17.50;;;;;;;2.97;57.38;101186.97;4936244;29;20028;-75
2022/03/27 05:12:36;;;;;;;54.83;14.18;;;;;;;3.11;56.90;101193.94;4936085;29;20046;-74
2022/03/27 05:15:02;;;;;;;32.03;9.25;;;;;;;3.12;56.70;101182.78;4935799;29;20392;-75
2022/03/27 05:17:27;;;;;;;38.97;9.75;;;;;;;3.18;56.32;101181.13;4936056;29;20035;-75
2022/03/27 05:19:53;;;;;;;34.78;9.88;;;;;;;3.26;55.66;101178.63;4935714;29;20047;-74
2022/03/27 05:22:18;;;;;;;25.98;6.65;;;;;;;3.47;55.32;101199.38;4936011;29;20106;-75
2022/03/27 05:24:45;;;;;;;16.48;6.28;;;;;;;3.63;54.70;101186.63;4935963;29;20042;-74
2022/03/27 05:27:12;;;;;;;53.72;22.73;;;;;;;3.97;54.21;101203.13;4935555;29;20380;-74
2022/03/27 05:29:37;;;;;;;36.60;14.70;;;;;;;4.26;52.85;101187.81;4936050;29;20032;-74
2022/03/27 05:32:03;;;;;;;24.73;10.10;;;;;;;4.77;51.66;101191.38;4935813;29;20020;-75
2022/03/27 05:34:28;;;;;;;25.40;11.18;;;;;;;5.56;50.13;101206.00;4935873;29;20107;-75
2022/03/27 05:36:54;;;;;;;9.77;4.07;;;;;;;6.52;47.11;101191.94;4935480;29;20031;-74
2022/03/27 05:39:19;;;;;;;8.63;3.45;;;;;;;7.06;44.78;101183.84;4935671;29;20031;-75
2022/03/27 05:41:45;;;;;;;7.82;3.35;;;;;;;7.28;44.67;101187.97;4935806;29;20035;-75
2022/03/27 05:44:10;;;;;;;6.43;3.35;;;;;;;7.54;44.14;101192.91;4935556;29;20033;-75
2022/03/27 05:46:36;;;;;;;6.75;3.13;;;;;;;7.84;42.88;101185.72;4935568;29;20428;-75
2022/03/27 05:49:01;;;;;;;18.83;7.45;;;;;;;8.42;41.91;101200.63;4935198;29;20111;-75
2022/03/27 05:51:27;;;;;;;9.10;3.95;;;;;;;9.09;39.56;101194.47;4935265;29;20046;-75
2022/03/27 05:53:52;;;;;;;7.15;3.95;;;;;;;10.01;37.79;101203.25;4933862;29;20028;-75
2022/03/27 05:56:18;;;;;;;9.55;4.00;;;;;;;9.86;37.56;101200.94;4935319;29;20027;-75
2022/03/27 05:58:43;;;;;;;8.70;3.25;;;;;;;9.98;37.29;101195.50;4935742;29;20039;-75
2022/03/27 06:01:09;;;;;;;7.97;3.58;;;;;;;10.16;36.41;101202.09;4934693;29;20032;-75
2022/03/27 06:03:34;;;;;;;8.88;3.90;;;;;;;10.40;35.78;101206.81;4935397;29;20035;-76
2022/03/27 06:05:59;;;;;;;5.57;3.05;;;;;;;11.09;34.02;101186.19;4935308;29;20030;-78
2022/03/27 06:08:25;;;;;;;6.10;3.42;;;;;;;11.52;34.48;101201.63;4965849;28;20083;-79
2022/03/27 06:10:50;;;;;;;4.72;2.63;;;;;;;11.46;33.66;101206.97;4935064;29;20038;-79
2022/03/27 06:13:17;;;;;;;6.63;3.28;;;;;;;11.36;34.15;101198.53;4935018;29;20059;-78
2022/03/27 06:15:42;;;;;;;5.32;3.00;;;;;;;11.58;33.63;101200.59;4965686;28;20507;-79
2022/03/27 06:18:10;;;;;;;5.32;3.08;;;;;;;12.07;33.21;101186.25;4934709;29;20024;-79
2022/03/27 06:20:36;;;;;;;10.52;3.20;;;;;;;12.95;31.17;101201.03;4934869;29;20603;-78
2022/03/27 06:23:03;;;;;;;6.05;3.15;;;;;;;12.42;30.90;101200.91;4934727;29;20032;-78
2022/03/27 06:25:29;;;;;;;4.07;2.80;;;;;;;11.49;31.97;101201.69;4934863;29;20028;-79
2022/03/27 06:27:55;;;;;;;6.22;3.53;;;;;;;10.94;33.02;101216.91;4933432;29;20032;-77
2022/03/27 06:30:22;;;;;;;11.05;6.03;;;;;;;11.19;33.25;101212.00;4934945;29;20396;-78
2022/03/27 06:32:49;;;;;;;6.78;3.30;;;;;;;12.27;32.05;101206.59;4934860;29;20110;-78
2022/03/27 06:35:16;;;;;;;10.32;5.50;;;;;;;11.98;31.49;101197.81;4933251;29;20027;-78
2022/03/27 06:37:42;;;;;;;7.18;4.25;;;;;;;12.28;32.00;101197.84;4935059;29;20031;-78
2022/03/27 06:40:09;;;;;;;7.13;3.38;;;;;;;12.76;30.84;101213.81;4951000;29;20051;-78
2022/03/27 06:42:35;;;;;;;9.60;3.30;;;;;;;13.73;30.13;101203.69;4951466;29;20554;-78
2022/03/27 06:45:01;;;;;;;5.43;3.10;;;;;;;14.82;28.21;101220.66;4951191;29;20043;-78
2022/03/27 06:47:27;;;;;;;6.47;3.30;;;;;;;14.80;27.96;101206.75;4951354;29;20035;-78
2022/03/27 06:49:56;;;;;;;6.32;3.13;;;;;;;14.64;27.62;101219.63;4967433;28;20047;-79
2022/03/27 06:52:21;;;;;;;8.43;3.30;;;;;;;14.80;27.33;101225.97;4951421;29;20031;-78
2022/03/27 06:54:48;;;;;;;6.00;3.88;;;;;;;15.92;26.16;101219.59;4967384;28;20380;-75
2022/03/27 06:57:14;;;;;;;9.73;3.33;;;;;;;16.22;25.59;101211.25;4951108;29;20578;-75
2022/03/27 07:05:09;;;;;;;6.50;3.25;;;;;;;17.02;23.43;101228.63;4951111;29;20130;-75
2022/03/27 07:07:35;;;;;;;4.93;2.97;;;;;;;16.67;23.60;101220.59;4951244;29;20023;-75
2022/03/27 07:10:01;;;;;;;5.15;2.83;;;;;;;17.10;24.10;101223.84;4950369;29;20043;-76
2022/03/27 07:12:26;;;;;;;4.43;2.60;;;;;;;19.11;21.17;101201.75;4935845;29;20075;-75
2022/03/27 07:14:52;;;;;;;6.45;2.20;;;;;;;20.43;19.13;101217.66;4938310;29;20400;-76
2022/03/27 07:17:18;;;;;;;4.60;2.35;;;;;;;19.42;20.01;101234.31;4938401;29;20078;-75
2022/03/27 07:19:44;;;;;;;3.95;2.42;;;;;;;18.93;20.54;101219.53;4938235;29;20032;-76
2022/03/27 07:22:10;;;;;;;4.43;2.38;;;;;;;20.63;19.47;101219.06;4937906;29;20023;-75
2022/03/27 07:24:36;;;;;;;4.57;2.65;;;;;;;22.88;18.22;101201.00;4938275;29;20063;-75
2022/03/27 07:27:02;;;;;;;5.38;2.72;;;;;;;24.85;16.62;101228.31;4937906;29;20114;-75
2022/03/27 07:29:30;;;;;;;6.13;2.80;;;;;;;25.87;15.65;101210.06;4938126;29;20541;-75
2022/03/27 07:31:56;;;;;;;5.03;2.97;;;;;;;27.34;14.91;101232.56;4937975;29;20024;-76
2022/03/27 07:34:21;;;;;;;4.93;2.88;;;;;;;28.17;13.53;101216.75;4937759;29;20680;-76
2022/03/27 07:36:46;;;;;;;5.70;2.83;;;;;;;29.56;12.94;101229.81;4938024;29;20038;-75
2022/03/27 07:39:12;;;;;;;6.85;3.70;;;;;;;29.82;12.44;101219.09;4937776;29;20032;-75
2022/03/27 07:41:39;;;;;;;6.90;3.58;;;;;;;29.39;12.22;101237.88;4937180;29;20035;-76
2022/03/27 07:44:05;;;;;;;8.07;3.53;;;;;;;29.24;12.22;101221.47;4937164;29;20063;-76
2022/03/27 07:46:30;;;;;;;7.18;3.67;;;;;;;30.27;12.13;101214.50;4937130;29;20046;-76
2022/03/27 07:48:56;;;;;;;6.28;3.33;;;;;;;30.89;11.99;101219.56;4937394;29;20035;-76
2022/03/27 07:51:21;;;;;;;8.93;3.90;;;;;;;30.56;12.13;101216.78;4937625;29;20051;-77
2022/03/27 07:53:46;;;;;;;8.75;4.03;;;;;;;30.42;12.14;101215.53;4937719;29;20028;-76
2022/03/27 07:56:12;;;;;;;6.85;3.85;;;;;;;27.71;13.11;101207.72;4937476;29;20417;-76
2022/03/27 07:58:39;;;;;;;7.13;3.92;;;;;;;24.54;14.70;101199.81;4937632;29;20373;-75
2022/03/27 08:01:05;;;;;;;6.97;3.88;;;;;;;22.16;16.19;101220.34;4937162;29;20149;-75
2022/03/27 08:03:31;;;;;;;8.68;3.30;;;;;;;19.97;16.86;101204.63;4937665;29;20487;-75
2022/03/27 08:05:56;;;;;;;6.35;2.92;;;;;;;18.69;18.02;101218.22;4937424;29;20074;-76
2022/03/27 08:08:22;;;;;;;4.72;3.03;;;;;;;17.60;18.98;101228.38;4937155;29;20035;-75
2022/03/27 08:10:47;;;;;;;9.48;2.92;;;;;;;16.34;20.07;101229.13;4936709;29;20034;-75
2022/03/27 08:13:13;;;;;;;5.38;2.90;;;;;;;15.87;20.88;101228.59;4936721;29;20775;-75
2022/03/27 08:15:38;;;;;;;5.85;3.00;;;;;;;15.33;21.68;101211.59;4937128;29;20098;-75
2022/03/27 08:18:04;;;;;;;6.07;3.47;;;;;;;14.98;22.31;101232.25;4936924;29;20028;-75
2022/03/27 08:20:29;;;;;;;8.13;3.13;;;;;;;14.72;22.95;101217.56;4936059;29;20047;-75
2022/03/27 08:22:55;;;;;;;7.20;3.17;;;;;;;14.42;23.15;101209.06;4936716;29;20031;-75
2022/03/27 08:28:07;;;;;;;5.65;3.15;;;;;;;14.10;23.75;101205.84;4936767;29;20178;-76
2022/03/27 08:30:33;;;;;;;5.22;3.00;;;;;;;14.01;24.07;101213.19;4937197;29;20094;-76
2022/03/27 08:32:58;;;;;;;6.20;2.90;;;;;;;14.03;24.42;101221.84;4937053;29;20024;-76
2022/03/27 08:35:24;;;;;;;8.57;3.20;;;;;;;13.83;24.78;101210.31;4936721;29;20099;-76
2022/03/27 08:37:49;;;;;;;6.13;3.38;;;;;;;13.44;24.74;101225.63;4936933;29;20031;-76
2022/03/27 08:40:15;;;;;;;6.85;3.45;;;;;;;13.17;25.06;101227.34;4936562;29;20031;-75
2022/03/27 08:42:43;;;;;;;5.25;2.80;;;;;;;13.01;24.45;101242.66;4936471;29;20432;-75
2022/03/27 08:45:09;;;;;;;6.82;3.08;;;;;;;12.61;24.77;101236.06;4936531;29;20032;-75
2022/03/27 08:47:38;;;;;;;6.45;3.00;;;;;;;12.21;25.32;101234.56;4936690;29;20043;-75
2022/03/27 08:50:25;;;;;;;7.93;3.38;;;;;;;11.97;26.18;101230.06;4936365;29;20484;-75
2022/03/27 08:53:05;;;;;;;7.55;3.22;;;;;;;11.83;26.94;101229.53;4936524;29;20020;-75
2022/03/27 08:55:46;;;;;;;9.55;4.15;;;;;;;12.01;27.46;101239.53;4936408;29;20047;-75
2022/03/27 08:58:13;;;;;;;6.30;3.40;;;;;;;11.79;26.46;101233.94;4936122;29;20050;-76
2022/03/27 09:00:40;;;;;;;6.03;3.22;;;;;;;11.62;26.98;101233.53;4936310;29;20028;-76
2022/03/27 09:03:06;;;;;;;6.30;3.90;;;;;;;11.44;27.10;101220.06;4936243;29;20083;-75
2022/03/27 09:05:41;;;;;;;5.53;3.60;;;;;;;11.61;27.38;101234.44;4936256;29;20472;-77
2022/03/27 09:08:09;;;;;;;9.90;3.67;;;;;;;11.63;27.53;101220.47;4936138;29;20110;-77
2022/03/27 09:10:35;;;;;;;8.40;3.45;;;;;;;11.55;27.24;101222.41;4936248;29;20032;-77
2022/03/27 09:13:02;;;;;;;7.10;3.58;;;;;;;11.54;27.60;101233.72;4936127;29;20027;-81
2022/03/27 09:15:27;;;;;;;5.72;3.10;;;;;;;11.45;27.59;101219.16;4966787;28;20079;-85
2022/03/27 09:18:00;;;;;;;8.88;3.38;;;;;;;11.61;27.82;101222.25;4934839;29;20063;-82
2022/03/27 09:20:46;;;;;;;5.45;3.47;;;;;;;11.58;27.41;101224.94;4966431;28;20074;-77
2022/03/27 09:23:19;;;;;;;11.52;4.25;;;;;;;11.44;27.99;101219.22;4935894;29;20027;-77
2022/03/27 09:25:49;;;;;;;6.03;3.70;;;;;;;11.34;28.14;101223.81;4935987;29;20032;-78
2022/03/27 09:28:30;;;;;;;5.50;3.13;;;;;;;11.42;28.44;101213.19;4935106;29;20055;-79
2022/03/27 09:30:58;;;;;;;7.53;3.08;;;;;;;11.51;28.19;101209.50;4916742;29;20032;-91
2022/03/27 09:33:46;;;;;;;5.82;3.55;;;;;;;11.65;28.46;101207.38;4915783;29;20044;-89
2022/03/27 09:36:46;;;;;;;7.32;2.90;;;;;;;11.72;28.26;101201.97;4914535;29;20420;-78
2022/03/27 09:39:16;;;;;;;6.72;2.83;;;;;;;11.68;27.95;101189.03;4876654;29;20049;-78
2022/03/27 09:41:48;;;;;;;;;;;;;;;11.77;27.45;101206.19;4877376;29;20045;-79
2022/03/27 09:44:20;;;;;;;5.63;2.92;;;;;;;11.60;27.61;101210.09;4879367;29;19915;-76
2022/03/27 09:46:47;;;;;;;4.40;3.00;;;;;;;11.43;28.07;101204.47;4895373;29;20048;-76
2022/03/27 09:49:14;;;;;;;4.28;2.47;;;;;;;11.28;28.20;101190.03;4895096;29;20044;-75
2022/03/27 09:51:55;;;;;;;4.57;2.80;;;;;;;11.38;28.66;101188.94;4895119;29;20069;-76
2022/03/27 09:54:22;;;;;;;4.90;3.08;;;;;;;11.39;28.53;101201.06;4893683;29;20029;-76
2022/03/27 09:56:47;;;;;;;6.72;3.33;;;;;;;11.33;28.74;101192.53;4894851;29;20047;-75
2022/03/27 09:59:39;;;;;;;6.47;2.88;;;;;;;11.40;28.66;101204.53;4894473;29;20032;-75
2022/03/27 10:02:30;;;;;;;5.25;2.50;;;;;;;11.25;28.76;101203.19;4820908;29;20050;-76
2022/03/27 10:05:05;;;;;;;4.15;2.80;;;;;;;11.21;29.31;101185.88;4784328;30;20624;-79
2022/03/27 10:07:39;;;;;;;4.10;2.58;;;;;;;11.27;29.23;101190.09;4784034;30;20055;-79
2022/03/27 10:10:10;;;;;;;8.88;3.00;;;;;;;11.23;29.85;101187.53;4784871;30;20559;-80
2022/03/27 10:12:38;;;;;;;6.80;2.88;;;;;;;11.31;30.47;101189.13;4784389;30;20043;-79
2022/03/27 10:15:11;;;;;;;4.97;2.95;;;;;;;11.34;30.97;101178.63;4783941;30;20066;-80
2022/03/27 10:17:38;;;;;;;5.28;2.95;;;;;;;11.37;31.03;101168.09;4784476;30;20039;-82
2022/03/27 10:20:13;;;;;;;8.48;3.63;;;;;;;11.34;31.62;101161.22;4784456;29;20108;-81
2022/03/27 10:22:42;;;;;;;8.38;3.22;;;;;;;11.42;32.56;101164.47;4784334;30;20047;-80
2022/03/27 10:25:09;;;;;;;5.13;3.25;;;;;;;11.23;33.08;101142.34;4783648;29;20528;-80
2022/03/27 10:27:39;;;;;;;5.20;3.25;;;;;;;11.23;33.44;101145.81;4784516;30;20547;-80
2022/03/27 10:30:07;;;;;;;8.87;3.67;;;;;;;11.24;33.07;101139.69;4769820;30;20392;-80
2022/03/27 10:32:33;;;;;;;6.43;3.83;;;;;;;11.40;31.98;101149.75;4784304;29;20273;-76
2022/03/27 10:35:23;;;;;;;7.10;3.72;;;;;;;11.53;32.03;101140.69;4784559;30;20048;-79
2022/03/27 10:38:03;;;;;;;6.47;3.78;;;;;;;11.71;32.43;101139.34;4804363;29;20108;-78
2022/03/27 10:40:39;;;;;;;7.30;3.38;;;;;;;11.78;32.91;101119.16;4838445;29;20050;-79
2022/03/27 10:43:31;;;;;;;5.88;3.13;;;;;;;11.94;33.13;101126.53;4909631;29;20040;-80
2022/03/27 10:46:15;;;;;;;10.63;3.17;;;;;;;12.07;33.51;101134.88;4878377;29;20044;-79
2022/03/27 10:48:44;;;;;;;6.57;2.85;;;;;;;12.07;32.93;101132.25;4897498;29;20067;-76
2022/03/27 10:51:10;;;;;;;8.63;4.00;;;;;;;11.95;33.09;101136.06;4912975;29;20562;-76
2022/03/27 10:53:36;;;;;;;7.88;3.58;;;;;;;11.78;32.29;101127.84;4913169;29;20036;-76
2022/03/27 10:56:03;;;;;;;6.90;3.58;;;;;;;11.62;32.29;101126.53;4913138;29;20135;-78
2022/03/27 10:58:31;;;;;;;6.32;3.70;;;;;;;11.64;32.64;101120.41;4912912;29;20461;-84
2022/03/27 11:00:59;;;;;;;7.80;3.53;;;;;;;11.64;32.76;101098.66;4913080;29;20119;-79
2022/03/27 11:03:49;;;;;;;4.70;3.30;;;;;;;11.84;32.67;101117.28;4896992;29;20036;-76
2022/03/27 11:06:35;;;;;;;6.80;3.33;;;;;;;11.95;32.66;101104.75;4912589;29;20036;-76
2022/03/27 11:09:04;;;;;;;4.68;2.88;;;;;;;12.01;32.33;101101.13;4913012;29;20544;-76
2022/03/27 11:11:35;;;;;;;5.20;3.40;;;;;;;12.13;32.11;101098.13;4912899;29;20035;-76
2022/03/27 11:14:02;;;;;;;6.35;3.38;;;;;;;12.05;31.74;101086.19;4915597;29;20056;-76
2022/03/27 11:16:28;;;;;;;4.57;2.80;;;;;;;12.08;31.67;101096.56;4925345;29;20562;-76
2022/03/27 11:18:53;;;;;;;4.50;3.05;;;;;;;12.12;32.28;101098.16;4915388;29;20123;-76
2022/03/27 11:21:27;;;;;;;7.50;3.65;;;;;;;12.16;32.11;101094.56;4915300;29;20068;-76
2022/03/27 11:24:19;;;;;;;5.15;3.20;;;;;;;12.23;31.81;101096.09;4915425;29;20129;-76
2022/03/27 11:26:44;;;;;;;5.00;3.22;;;;;;;12.14;31.13;101067.66;4912851;29;20083;-76
2022/03/27 11:29:10;;;;;;;6.60;4.18;;;;;;;12.19;31.29;101090.09;4912598;29;20044;-79
2022/03/27 11:31:37;;;;;;;6.68;4.13;;;;;;;12.21;31.53;101082.22;4896938;29;20502;-76
2022/03/27 11:34:05;;;;;;;7.30;4.28;;;;;;;12.16;31.51;101084.97;4912768;29;20072;-76
2022/03/27 11:36:33;;;;;;;6.00;4.30;;;;;;;12.21;31.76;101071.75;4912520;29;20063;-76
2022/03/27 11:39:02;;;;;;;8.20;4.45;;;;;;;12.11;31.53;101065.13;4912765;29;20135;-77